Time;durP1;ratioP1;P1;durP2;ratioP2;P2;SDS_P1;SDS_P2;PMS_P1;PMS_P2;Temp;Humidity;BMP_temperature;BMP_pressure;BME280_temperature;BME280_humidity;BME280_pressure;Samples;Min_cycle;Max_cycle;Signal;HPM_P1;HPM_P2
2022/12/15 00:40:33;;;;;;;;;;;;;;;19.45;41.20;100202.11;102120;1326;73118;-84
2022/12/15 00:42:58;;;;;;;;;;;;;;;19.45;41.24;100206.23;102057;1329;61405;-83
2022/12/15 00:46:53;;;;;;;;;;;;;;;19.45;41.05;100206.89;102116;1326;61295;-83
2022/12/15 00:48:09;;;;;;;;;;;;;;;19.45;41.09;100206.36;102147;1326;61261;-83
2022/12/15 00:50:53;;;;;;;;;;;;;;;19.46;41.02;100209.18;102116;1326;61400;-83
2022/12/15 01:20:44;;;;;;;;;;;;;;;19.48;41.10;100195.07;102120;1326;61364;-85
2022/12/15 01:23:11;;;;;;;;;;;;;;;19.49;41.18;100188.07;102135;1323;61343;-84
2022/12/15 01:25:37;;;;;;;;;;;;;;;19.49;41.17;100187.85;102140;1326;61277;-84
2022/12/15 01:28:02;;;;;;;;;;;;;;;19.49;41.26;100190.90;102083;1326;61353;-84
2022/12/15 01:30:28;;;;;;;;;;;;;;;19.50;41.26;100188.70;102124;1325;61395;-83
2022/12/15 01:32:53;;;;;;;;;;;;;;;19.49;41.10;100181.27;102081;1327;61340;-84
2022/12/15 01:35:19;;;;;;;;;;;;;;;19.50;41.04;100183.15;102194;1326;61411;-83
2022/12/15 01:37:44;;;;;;;;;;;;;;;19.50;41.18;100180.64;102107;1326;61304;-83
2022/12/15 01:42:58;;;;;;;;;;;;;;;19.50;41.15;100161.94;102176;1324;61308;-84
2022/12/15 01:45:27;;;;;;;;;;;;;;;19.50;41.22;100153.38;102142;1326;61375;-83
2022/12/15 01:47:53;;;;;;;;;;;;;;;19.50;41.14;100158.13;102163;1326;74500;-83
2022/12/15 01:50:18;;;;;;;;;;;;;;;19.50;41.14;100164.59;102130;1330;61389;-83
2022/12/15 01:52:43;;;;;;;;;;;;;;;19.50;41.32;100168.33;102081;1333;61303;-84
2022/12/15 01:55:09;;;;;;;;;;;;;;;19.51;41.26;100169.19;102080;1327;61322;-84
2022/12/15 01:57:35;;;;;;;;;;;;;;;19.51;41.17;100167.75;102188;1326;61372;-84
2022/12/15 02:00:04;;;;;;;;;;;;;;;19.51;41.17;100164.35;102140;1326;74537;-83
2022/12/15 02:02:30;;;;;;;;;;;;;;;19.51;41.34;100157.02;102167;1326;61204;-83
2022/12/15 02:04:55;;;;;;;;;;;;;;;19.51;41.27;100151.33;102078;1328;61385;-83
2022/12/15 02:07:21;;;;;;;;;;;;;;;19.51;41.23;100149.02;102071;1327;61337;-83
2022/12/15 02:09:47;;;;;;;;;;;;;;;19.51;41.31;100147.89;102156;1325;61284;-83
2022/12/15 02:12:12;;;;;;;;;;;;;;;19.52;41.27;100137.38;102145;1325;61424;-83
2022/12/15 02:14:43;;;;;;;;;;;;;;;19.51;41.36;100136.83;102190;1326;61593;-83
2022/12/15 02:17:20;;;;;;;;;;;;;;;19.51;41.24;100131.27;102191;1326;72563;-83
2022/12/15 02:20:15;;;;;;;;;;;;;;;19.51;41.25;100138.27;102059;1326;74356;-84
2022/12/15 02:22:56;;;;;;;;;;;;;;;19.52;41.32;100145.20;102150;1326;61164;-84
2022/12/15 02:25:29;;;;;;;;;;;;;;;19.52;41.38;100143.06;102168;1327;61139;-83
2022/12/15 02:27:55;;;;;;;;;;;;;;;19.52;41.21;100139.29;102147;1325;73650;-83
2022/12/15 02:30:27;;;;;;;;;;;;;;;19.53;41.31;100135.63;102096;1329;75646;-83
2022/12/15 02:33:02;;;;;;;;;;;;;;;19.53;41.16;100129.91;102193;1326;61271;-83
2022/12/15 02:35:45;;;;;;;;;;;;;;;19.53;41.31;100117.39;102182;1326;61316;-83
2022/12/15 02:38:11;;;;;;;;;;;;;;;19.53;41.28;100107.58;102109;1333;71557;-84
2022/12/15 02:40:36;;;;;;;;;;;;;;;19.53;41.35;100104.58;102145;1326;61343;-84
2022/12/15 02:43:02;;;;;;;;;;;;;;;19.54;41.38;100102.38;102099;1329;61385;-84
2022/12/15 02:45:45;;;;;;;;;;;;;;;19.54;41.22;100106.47;102141;1326;61249;-83
2022/12/15 02:48:29;;;;;;;;;;;;;;;19.54;41.38;100111.27;102106;1330;73727;-83
2022/12/15 02:50:55;;;;;;;;;;;;;;;19.54;41.37;100107.16;102074;1327;75897;-83
2022/12/15 02:53:35;;;;;;;;;;;;;;;19.54;41.36;100105.56;102165;1327;61310;-84
2022/12/15 02:56:13;;;;;;;;;;;;;;;19.54;41.25;100105.21;102162;1333;61318;-82
2022/12/15 02:58:43;;;;;;;;;;;;;;;19.54;41.31;100106.61;102165;1326;72562;-83
2022/12/15 03:01:47;;;;;;;;;;;;;;;19.55;41.26;100096.91;102156;1330;74997;-83
2022/12/15 03:04:13;;;;;;;;;;;;;;;19.55;41.18;100091.03;101916;1329;61267;-83
2022/12/15 03:06:38;;;;;;;;;;;;;;;19.55;41.30;100089.75;101803;1338;61337;-82
2022/12/15 03:09:03;;;;;;;;;;;;;;;19.55;41.54;100093.16;101808;1333;61275;-83
2022/12/15 03:11:29;;;;;;;;;;;;;;;19.55;41.44;100101.19;101832;1332;61753;-83
2022/12/15 03:13:54;;;;;;;;;;;;;;;19.55;41.36;100106.70;101869;1332;60433;-84
2022/12/15 03:16:20;;;;;;;;;;;;;;;19.56;41.34;100109.68;101862;1332;61291;-84
2022/12/15 03:18:46;;;;;;;;;;;;;;;19.56;41.30;100113.48;101878;1338;61409;-84
2022/12/15 03:21:11;;;;;;;;;;;;;;;19.56;41.40;100113.25;101831;1338;61440;-84
2022/12/15 03:23:37;;;;;;;;;;;;;;;19.56;41.41;100105.96;101860;1330;61544;-84
2022/12/15 03:26:03;;;;;;;;;;;;;;;19.57;41.36;100107.32;101860;1336;61622;-84
2022/12/15 03:28:29;;;;;;;;;;;;;;;19.57;41.41;100109.98;101863;1322;61315;-83
2022/12/15 03:30:55;;;;;;;;;;;;;;;19.57;41.31;100103.38;101869;1333;61167;-84
2022/12/15 03:33:20;;;;;;;;;;;;;;;19.57;41.15;100099.09;101841;1339;61775;-83
2022/12/15 03:35:46;;;;;;;;;;;;;;;19.57;41.49;100098.88;102009;1332;61321;-83
2022/12/15 03:38:12;;;;;;;;;;;;;;;19.57;41.43;100096.55;102198;1326;61335;-83
2022/12/15 03:40:37;;;;;;;;;;;;;;;19.58;41.26;100095.45;102127;1329;61440;-83
2022/12/15 03:43:03;;;;;;;;;;;;;;;19.58;41.35;100093.51;102164;1326;62153;-84
2022/12/15 03:45:28;;;;;;;;;;;;;;;19.58;41.34;100094.36;102134;1327;61395;-83
2022/12/15 03:47:54;;;;;;;;;;;;;;;19.58;41.41;100093.12;102110;1326;61331;-83
2022/12/15 03:50:23;;;;;;;;;;;;;;;19.58;41.28;100097.58;102166;1316;61270;-84
2022/12/15 03:52:50;;;;;;;;;;;;;;;19.58;41.39;100093.80;102157;1326;60117;-84
2022/12/15 03:55:38;;;;;;;;;;;;;;;19.59;41.39;100090.20;102148;1326;72461;-84
2022/12/15 03:58:04;;;;;;;;;;;;;;;19.59;41.42;100086.61;101882;1332;73499;-84
2022/12/15 04:00:32;;;;;;;;;;;;;;;19.59;41.47;100084.63;101807;1333;61538;-83
2022/12/15 04:02:57;;;;;;;;;;;;;;;19.60;41.36;100081.21;101883;1339;61321;-83
2022/12/15 04:05:24;;;;;;;;;;;;;;;19.60;41.42;100079.59;101823;1337;61326;-83
2022/12/15 04:07:50;;;;;;;;;;;;;;;19.60;41.26;100076.37;101841;1332;61283;-83
2022/12/15 04:10:15;;;;;;;;;;;;;;;19.60;41.42;100074.55;101822;1335;61342;-83
2022/12/15 04:12:41;;;;;;;;;;;;;;;19.60;41.34;100080.98;101871;1332;59924;-84
2022/12/15 04:15:07;;;;;;;;;;;;;;;19.60;41.41;100082.41;101823;1332;61432;-84
2022/12/15 04:17:32;;;;;;;;;;;;;;;19.61;41.50;100085.94;101893;1332;61453;-84
2022/12/15 04:20:10;;;;;;;;;;;;;;;19.60;41.39;100087.06;101813;1341;74666;-83
2022/12/15 04:22:39;;;;;;;;;;;;;;;19.60;41.27;100084.21;101870;1331;61297;-84
2022/12/15 05:33:51;;;;;;;;;;;;;;;19.61;41.16;100130.70;102051;1318;72327;-83
2022/12/15 05:36:17;;;;;;;;;;;;;;;19.59;41.11;100133.35;102349;1317;75646;-83
2022/12/15 05:38:42;;;;;;;;;;;;;;;19.58;41.20;100133.83;102060;1324;61409;-83
2022/12/15 05:41:08;;;;;;;;;;;;;;;19.55;41.03;100133.31;102110;1317;61310;-83
2022/12/15 05:43:33;;;;;;;;;;;;;;;19.53;41.13;100137.64;101994;1333;59377;-83
2022/12/15 05:46:03;;;;;;;;;;;;;;;19.50;41.18;100142.13;102080;1326;61308;-83
2022/12/15 05:48:28;;;;;;;;;;;;;;;19.46;41.05;100149.04;102007;1317;74611;-83
2022/12/15 05:50:53;;;;;;;;;;;;;;;19.42;40.92;100146.08;102036;1316;59396;-83
2022/12/15 05:53:19;;;;;;;;;;;;;;;19.38;41.00;100144.95;102037;1317;64563;-83
2022/12/15 05:55:44;;;;;;;;;;;;;;;19.34;41.09;100153.86;101912;1317;60129;-83
2022/12/15 05:58:10;;;;;;;;;;;;;;;19.28;40.88;100159.25;102040;1317;61311;-82
2022/12/15 06:00:37;;;;;;;;;;;;;;;19.22;40.89;100165.40;102154;1317;61299;-83
2022/12/15 06:03:03;;;;;;;;;;;;;;;19.17;41.12;100168.41;102042;1319;61014;-83
2022/12/15 06:05:28;;;;;;;;;;;;;;;19.13;40.91;100165.68;102131;1317;61359;-83
2022/12/15 06:07:55;;;;;;;;;;;;;;;19.10;41.01;100175.52;102062;1318;61283;-82
2022/12/15 06:10:20;;;;;;;;;;;;;;;19.09;41.13;100172.40;102924;1333;59367;-83
2022/12/15 06:12:46;;;;;;;;;;;;;;;19.08;40.95;100173.34;102024;1318;61358;-82
2022/12/15 06:15:12;;;;;;;;;;;;;;;19.09;40.98;100173.29;102127;1324;59312;-83
2022/12/15 06:17:37;;;;;;;;;;;;;;;19.12;41.08;100178.79;101977;1321;60412;-84
2022/12/15 06:20:04;;;;;;;;;;;;;;;19.15;41.10;100182.14;102063;1320;61340;-84
2022/12/15 06:22:29;;;;;;;;;;;;;;;19.18;40.95;100187.84;102002;1318;60399;-83
2022/12/15 06:24:55;;;;;;;;;;;;;;;19.21;41.12;100190.45;102014;1310;61306;-84
2022/12/15 06:27:21;;;;;;;;;;;;;;;19.25;41.19;100188.92;101996;1330;61287;-84
2022/12/15 06:29:47;;;;;;;;;;;;;;;19.28;41.10;100189.95;102041;1310;61321;-84
2022/12/15 06:32:12;;;;;;;;;;;;;;;19.31;41.01;100186.52;102044;1317;73469;-84
2022/12/15 06:34:38;;;;;;;;;;;;;;;19.33;41.08;100190.29;102045;1323;61324;-85
2022/12/15 06:37:03;;;;;;;;;;;;;;;19.35;41.34;100198.84;102014;1319;61376;-83
2022/12/15 06:39:29;;;;;;;;;;;;;;;19.38;41.24;100210.25;102017;1318;61330;-84
2022/12/15 06:41:54;;;;;;;;;;;;;;;19.41;41.16;100216.66;101998;1319;61424;-83
2022/12/15 06:44:20;;;;;;;;;;;;;;;19.43;41.31;100220.95;102067;1317;60680;-83
2022/12/15 06:46:45;;;;;;;;;;;;;;;19.45;41.33;100230.77;101947;1320;61423;-83
2022/12/15 06:49:11;;;;;;;;;;;;;;;19.49;41.36;100241.64;102020;1316;60815;-83
2022/12/15 06:51:36;;;;;;;;;;;;;;;19.52;41.31;100247.46;102030;1317;61289;-84
2022/12/15 06:54:02;;;;;;;;;;;;;;;19.55;41.43;100254.18;102103;1310;61384;-83
2022/12/15 06:56:30;;;;;;;;;;;;;;;19.56;41.40;100260.33;102074;1317;61195;-84
2022/12/15 06:58:57;;;;;;;;;;;;;;;19.57;41.63;100268.30;102085;1317;73854;-85
2022/12/15 07:01:25;;;;;;;;;;;;;;;19.57;41.78;100276.83;102099;1318;61026;-83
2022/12/15 07:03:50;;;;;;;;;;;;;;;19.59;41.80;100283.16;102131;1318;61863;-83
2022/12/15 07:06:16;;;;;;;;;;;;;;;19.59;41.90;100284.36;102096;1313;61334;-83
2022/12/15 07:08:42;;;;;;;;;;;;;;;19.60;42.03;100287.20;101969;1320;61410;-83
2022/12/15 07:11:09;;;;;;;;;;;;;;;19.61;42.28;100290.68;102042;1318;61154;-83
2022/12/15 07:13:34;;;;;;;;;;;;;;;19.63;42.11;100295.74;102232;1327;60045;-83
2022/12/15 07:16:00;;;;;;;;;;;;;;;19.64;42.21;100304.78;102102;1311;61653;-84
2022/12/15 07:18:25;;;;;;;;;;;;;;;19.65;42.29;100310.05;102443;1324;74005;-84
2022/12/15 07:20:51;;;;;;;;;;;;;;;19.66;42.23;100316.06;102018;1318;61404;-84
2022/12/15 07:23:16;;;;;;;;;;;;;;;19.66;42.37;100320.16;101947;1317;59783;-83
2022/12/15 07:25:42;;;;;;;;;;;;;;;19.66;42.40;100318.55;102003;1317;61306;-84
2022/12/15 07:28:07;;;;;;;;;;;;;;;19.66;42.27;100322.45;102051;1319;62971;-83
2022/12/15 07:30:33;;;;;;;;;;;;;;;19.66;42.41;100323.68;102058;1316;73637;-83
2022/12/15 07:33:02;;;;;;;;;;;;;;;19.66;42.40;100320.48;102032;1318;59350;-83
2022/12/15 07:35:28;;;;;;;;;;;;;;;19.66;42.41;100321.40;102023;1324;61360;-83
2022/12/15 07:37:53;;;;;;;;;;;;;;;19.66;42.60;100317.98;102028;1317;61327;-84
2022/12/15 07:40:19;;;;;;;;;;;;;;;19.67;42.71;100312.77;102045;1318;61391;-83
2022/12/15 07:42:44;;;;;;;;;;;;;;;19.66;42.89;100314.41;101986;1317;61370;-83
2022/12/15 07:45:10;;;;;;;;;;;;;;;19.66;42.92;100312.63;102067;1316;61309;-83
2022/12/15 07:47:35;;;;;;;;;;;;;;;19.66;43.05;100317.65;101959;1319;60110;-83
2022/12/15 07:50:01;;;;;;;;;;;;;;;19.66;43.00;100327.63;102011;1317;59524;-82
2022/12/15 07:52:26;;;;;;;;;;;;;;;19.65;43.13;100325.75;101930;1320;61277;-85
2022/12/15 07:54:54;;;;;;;;;;;;;;;19.50;42.85;100326.09;102051;1317;61404;-82
2022/12/15 07:57:20;;;;;;;;;;;;;;;19.42;42.94;100327.02;102186;1318;61308;-84
2022/12/15 07:59:45;;;;;;;;;;;;;;;19.39;43.09;100336.16;102003;1317;59214;-85
2022/12/15 08:02:11;;;;;;;;;;;;;;;19.35;43.10;100340.94;102063;1318;61665;-85
2022/12/15 08:04:37;;;;;;;;;;;;;;;19.28;43.07;100354.97;102093;1317;61326;-84
2022/12/15 08:07:02;;;;;;;;;;;;;;;19.25;43.05;100364.65;102133;1324;74584;-85
2022/12/15 08:09:28;;;;;;;;;;;;;;;19.21;43.52;100365.60;102001;1321;61728;-83
2022/12/15 08:11:54;;;;;;;;;;;;;;;19.19;43.19;100360.36;102173;1318;63099;-83
2022/12/15 08:14:19;;;;;;;;;;;;;;;19.18;43.33;100360.31;102127;1321;61488;-86
2022/12/15 08:16:45;;;;;;;;;;;;;;;19.17;43.44;100363.92;101969;1318;61273;-83
2022/12/15 08:19:12;;;;;;;;;;;;;;;19.19;43.25;100375.40;101503;1316;755615;-82
2022/12/15 08:21:38;;;;;;;;;;;;;;;19.21;43.41;100382.36;102067;1317;61001;-82
2022/12/15 08:24:03;;;;;;;;;;;;;;;19.26;43.51;100393.48;102051;1313;61332;-82
2022/12/15 08:26:29;;;;;;;;;;;;;;;19.31;43.41;100403.85;102042;1325;60143;-82
2022/12/15 08:28:54;;;;;;;;;;;;;;;19.34;43.70;100406.67;101982;1327;61283;-82
2022/12/15 08:31:20;;;;;;;;;;;;;;;19.39;43.75;100405.26;102122;1319;61325;-82
2022/12/15 08:33:46;;;;;;;;;;;;;;;19.43;43.73;100399.42;102078;1318;61379;-83
2022/12/15 08:36:13;;;;;;;;;;;;;;;19.46;43.88;100398.32;102174;1324;61206;-82
2022/12/15 08:38:38;;;;;;;;;;;;;;;19.50;43.94;100401.59;102017;1318;73325;-82
2022/12/15 08:41:11;;;;;;;;;;;;;;;19.54;43.93;100403.83;102023;1311;61450;-83
2022/12/15 08:43:36;;;;;;;;;;;;;;;19.56;44.03;100399.55;102153;1314;61397;-83
2022/12/15 08:46:02;;;;;;;;;;;;;;;19.59;44.13;100400.22;102068;1317;61433;-82
2022/12/15 08:48:28;;;;;;;;;;;;;;;19.61;43.96;100399.77;102327;1317;61312;-83
2022/12/15 08:50:57;;;;;;;;;;;;;;;19.64;44.14;100400.11;102085;1318;61489;-83
2022/12/15 08:53:22;;;;;;;;;;;;;;;19.66;43.98;100405.52;101986;1319;59555;-83
2022/12/15 08:55:48;;;;;;;;;;;;;;;19.67;44.11;100405.75;102046;1318;60132;-83
2022/12/15 08:58:13;;;;;;;;;;;;;;;19.69;44.19;100407.06;102010;1316;61222;-82
2022/12/15 09:00:38;;;;;;;;;;;;;;;19.69;44.37;100402.39;102007;1317;61410;-84
2022/12/15 09:03:04;;;;;;;;;;;;;;;19.69;44.27;100402.22;102119;1317;63571;-83
2022/12/15 09:05:30;;;;;;;;;;;;;;;19.70;44.29;100404.86;101772;1316;61271;-85
2022/12/15 09:07:59;;;;;;;;;;;;;;;19.70;44.46;100409.27;102860;1332;59142;-83
2022/12/15 09:10:25;;;;;;;;;;;;;;;19.70;44.39;100402.16;102973;1320;59279;-86
2022/12/15 09:12:50;;;;;;;;;;;;;;;19.60;44.39;100406.27;102903;1320;59471;-83
2022/12/15 09:15:16;;;;;;;;;;;;;;;19.50;44.44;100411.40;102904;1326;59482;-83
2022/12/15 09:17:42;;;;;;;;;;;;;;;19.49;44.54;100405.79;102961;1332;59022;-83
2022/12/15 09:20:08;;;;;;;;;;;;;;;19.51;44.62;100403.84;102963;1332;59138;-83
2022/12/15 09:22:35;;;;;;;;;;;;;;;19.53;44.66;100398.17;102975;1332;73917;-83
2022/12/15 09:25:01;;;;;;;;;;;;;;;19.56;44.81;100397.40;102980;1330;75845;-83
2022/12/15 09:27:28;;;;;;;;;;;;;;;19.59;44.74;100398.27;103013;1334;59055;-83
2022/12/15 09:29:53;;;;;;;;;;;;;;;19.62;44.73;100399.18;102438;1316;61285;-83
2022/12/15 09:32:18;;;;;;;;;;;;;;;19.64;44.69;100396.16;101944;1321;61402;-83
2022/12/15 09:34:44;;;;;;;;;;;;;;;19.65;44.93;100395.35;102065;1317;59333;-82
2022/12/15 09:37:09;;;;;;;;;;;;;;;19.66;44.91;100396.58;102055;1318;61298;-82
2022/12/15 09:39:36;;;;;;;;;;;;;;;19.66;44.80;100400.98;102076;1321;61414;-83
2022/12/15 09:42:02;;;;;;;;;;;;;;;19.67;44.97;100401.14;102013;1317;61618;-83
2022/12/15 09:44:28;;;;;;;;;;;;;;;19.67;44.94;100400.19;101966;1316;61810;-83
2022/12/15 09:47:04;;;;;;;;;;;;;;;19.68;44.90;100399.11;102068;1316;59818;-83
2022/12/15 09:50:03;;;;;;;;;;;;;;;19.68;45.03;100409.26;103052;1332;59125;-83
2022/12/15 09:52:40;;;;;;;;;;;;;;;19.68;45.12;100406.72;101679;1324;61384;-83
2022/12/15 09:55:20;;;;;;;;;;;;;;;19.69;45.10;100395.81;101818;1323;72443;-82
2022/12/15 09:57:53;;;;;;;;;;;;;;;19.69;45.19;100398.98;101603;1325;74569;-83
2022/12/15 10:00:29;;;;;;;;;;;;;;;19.70;45.22;100401.64;101571;1327;61021;-84
2022/12/15 10:02:57;;;;;;;;;;;;;;;19.70;45.22;100398.94;101719;1323;61258;-82
2022/12/15 10:05:27;;;;;;;;;;;;;;;19.67;45.10;100404.72;101445;1322;73481;-84
2022/12/15 10:07:52;;;;;;;;;;;;;;;19.61;45.11;100403.65;101550;1325;75387;-83
2022/12/15 10:10:26;;;;;;;;;;;;;;;19.51;44.96;100402.42;101719;1324;59524;-84
2022/12/15 10:12:52;;;;;;;;;;;;;;;19.42;45.14;100407.65;102453;1333;60275;-84
2022/12/15 10:15:22;;;;;;;;;;;;;;;19.38;45.04;100410.98;101754;1322;61293;-84
2022/12/15 10:17:47;;;;;;;;;;;;;;;19.37;44.94;100414.81;101832;1324;74483;-83
2022/12/15 10:20:17;;;;;;;;;;;;;;;19.36;44.99;100410.45;101899;1323;59674;-83
2022/12/15 10:22:43;;;;;;;;;;;;;;;19.36;45.09;100409.17;101864;1324;61112;-83
2022/12/15 10:25:18;;;;;;;;;;;;;;;19.37;44.94;100402.33;101749;1322;61202;-84
2022/12/15 10:27:56;;;;;;;;;;;;;;;19.37;44.89;100403.05;101974;1332;74402;-83
2022/12/15 10:30:21;;;;;;;;;;;;;;;19.37;44.81;100408.94;102103;1316;61295;-84
2022/12/15 10:32:50;;;;;;;;;;;;;;;19.38;44.84;100413.14;102156;1317;61306;-85
2022/12/15 10:35:16;;;;;;;;;;;;;;;19.38;44.73;100414.23;101997;1317;72902;-84
2022/12/15 10:37:43;;;;;;;;;;;;;;;19.37;44.73;100410.34;102019;1314;60187;-84
2022/12/15 10:40:13;;;;;;;;;;;;;;;19.38;44.71;100417.96;102058;1321;61083;-82
2022/12/15 10:42:47;;;;;;;;;;;;;;;19.39;44.90;100422.51;101984;1318;61345;-82
2022/12/15 10:45:32;;;;;;;;;;;;;;;19.41;45.01;100426.51;102950;1318;73760;-84
2022/12/15 10:48:05;;;;;;;;;;;;;;;19.41;44.86;100431.29;102286;1317;74548;-83
2022/12/15 10:50:31;;;;;;;;;;;;;;;19.43;45.21;100423.50;101987;1327;60162;-84
2022/12/15 10:52:57;;;;;;;;;;;;;;;19.45;45.02;100421.58;102102;1318;62000;-83
2022/12/15 10:55:36;;;;;;;;;;;;;;;19.45;45.15;100419.12;101948;1317;59395;-83
2022/12/15 10:58:02;;;;;;;;;;;;;;;19.43;45.21;100423.30;102022;1314;73663;-84
2022/12/15 11:00:29;;;;;;;;;;;;;;;19.42;45.21;100425.66;102081;1316;61151;-83
2022/12/15 11:02:54;;;;;;;;;;;;;;;19.42;45.11;100421.96;102058;1317;61772;-83
2022/12/15 11:05:20;;;;;;;;;;;;;;;19.35;45.06;100416.92;101977;1318;61391;-84
2022/12/15 11:07:49;;;;;;;;;;;;;;;19.20;44.88;100414.55;101668;1319;61337;-84
2022/12/15 11:10:27;;;;;;;;;;;;;;;19.13;45.00;100418.30;102152;1327;59552;-84
2022/12/15 11:12:53;;;;;;;;;;;;;;;19.12;45.01;100421.56;102206;1324;60372;-85
2022/12/15 11:15:22;;;;;;;;;;;;;;;18.99;44.91;100424.58;102150;1321;61211;-84
2022/12/15 11:17:59;;;;;;;;;;;;;;;18.89;45.01;100424.90;102046;1318;74487;-84
2022/12/15 11:20:28;;;;;;;;;;;;;;;18.87;44.94;100427.66;102212;1326;61273;-82
2022/12/15 11:23:23;;;;;;;;;;;;;;;18.90;45.09;100432.17;101497;1317;61481;-83
2022/12/15 11:26:06;;;;;;;;;;;;;;;18.93;45.03;100437.96;101197;1323;71409;-82
2022/12/15 11:28:57;;;;;;;;;;;;;;;18.98;44.95;100439.12;102525;1329;75553;-83
2022/12/15 11:31:23;;;;;;;;;;;;;;;19.05;44.95;100437.92;102453;1338;59908;-83
2022/12/15 11:33:53;;;;;;;;;;;;;;;19.12;44.76;100437.28;102467;1340;59372;-83
2022/12/15 11:36:37;;;;;;;;;;;;;;;19.17;44.84;100434.98;102517;1341;71843;-83
2022/12/15 11:39:07;;;;;;;;;;;;;;;19.19;44.68;100438.58;102227;1326;74565;-82
2022/12/15 11:41:41;;;;;;;;;;;;;;;19.19;44.62;100441.91;101721;1328;60072;-83
2022/12/15 11:44:19;;;;;;;;;;;;;;;19.20;44.58;100439.41;101735;1331;61255;-84
2022/12/15 11:47:05;;;;;;;;;;;;;;;19.18;44.70;100436.44;101739;1323;72922;-83
2022/12/15 11:49:37;;;;;;;;;;;;;;;19.19;44.37;100443.35;102437;1337;73933;-84
2022/12/15 11:52:10;;;;;;;;;;;;;;;19.22;44.34;100446.75;102626;1332;60004;-83
2022/12/15 11:54:47;;;;;;;;;;;;;;;19.25;44.21;100444.19;101894;1330;59405;-83
2022/12/15 11:57:37;;;;;;;;;;;;;;;19.26;44.26;100441.63;101791;1322;73361;-83
2022/12/15 12:00:03;;;;;;;;;;;;;;;19.24;44.17;100443.19;102519;1331;74749;-83
2022/12/15 12:02:29;;;;;;;;;;;;;;;19.17;44.13;100449.59;102757;1331;59308;-83
2022/12/15 12:05:04;;;;;;;;;;;;;;;19.09;44.01;100450.44;102875;1333;59431;-83
2022/12/15 12:07:35;;;;;;;;;;;;;;;19.02;44.21;100451.66;102794;1318;73437;-84
2022/12/15 12:10:07;;;;;;;;;;;;;;;19.02;44.19;100457.02;102081;1318;75388;-83
2022/12/15 12:12:35;;;;;;;;;;;;;;;19.01;44.17;100455.71;102096;1320;59967;-83
2022/12/15 12:15:10;;;;;;;;;;;;;;;19.00;44.06;100465.34;102013;1327;61417;-83
2022/12/15 12:17:51;;;;;;;;;;;;;;;19.00;43.98;100473.02;102126;1316;72315;-83
2022/12/15 12:20:21;;;;;;;;;;;;;;;19.00;44.07;100469.67;102034;1316;75825;-83
2022/12/15 12:23:01;;;;;;;;;;;;;;;19.01;44.28;100473.10;102053;1318;61186;-83
2022/12/15 12:25:26;;;;;;;;;;;;;;;19.04;44.25;100481.64;102037;1327;61326;-83
2022/12/15 12:28:02;;;;;;;;;;;;;;;19.05;44.04;100484.98;101961;1319;61794;-83
2022/12/15 12:30:33;;;;;;;;;;;;;;;19.06;44.10;100486.70;102091;1317;74516;-83
2022/12/15 12:33:08;;;;;;;;;;;;;;;19.07;44.02;100485.38;101992;1320;61944;-83
2022/12/15 12:35:50;;;;;;;;;;;;;;;19.07;43.98;100484.48;102944;1333;60274;-83
2022/12/15 12:38:19;;;;;;;;;;;;;;;19.09;44.02;100497.00;102056;1320;72728;-83
2022/12/15 12:40:57;;;;;;;;;;;;;;;19.11;43.76;100496.40;102010;1318;74688;-83
2022/12/15 12:43:33;;;;;;;;;;;;;;;19.12;43.73;100496.86;102013;1317;59580;-83
2022/12/15 12:46:07;;;;;;;;;;;;;;;19.12;43.72;100503.21;102066;1321;61309;-84
2022/12/15 12:48:37;;;;;;;;;;;;;;;19.14;43.57;100511.50;102034;1328;72567;-84
2022/12/15 12:51:15;;;;;;;;;;;;;;;19.15;43.50;100513.56;101996;1313;75775;-84
2022/12/15 12:53:40;;;;;;;;;;;;;;;19.16;43.56;100518.52;102004;1316;59298;-84
2022/12/15 12:56:06;;;;;;;;;;;;;;;19.14;43.15;100527.02;102061;1310;61267;-85
2022/12/15 12:58:32;;;;;;;;;;;;;;;19.14;43.37;100531.31;102163;1326;61410;-83
2022/12/15 13:01:09;;;;;;;;;;;;;;;19.12;43.04;100533.78;102319;1330;61391;-84
2022/12/15 13:03:38;;;;;;;;;;;;;;;19.10;43.19;100534.58;101774;1330;62175;-84
2022/12/15 13:06:18;;;;;;;;;;;;;;;19.06;43.18;100536.63;101911;1325;61191;-84
2022/12/15 13:08:45;;;;;;;;;;;;;;;19.05;43.03;100537.95;103045;1320;72651;-84
2022/12/15 13:11:32;;;;;;;;;;;;;;;19.06;43.16;100544.33;103040;1333;74504;-84
2022/12/15 13:13:57;;;;;;;;;;;;;;;19.07;43.04;100546.92;102072;1326;61002;-84
2022/12/15 13:16:23;;;;;;;;;;;;;;;19.08;43.16;100550.73;102126;1326;60886;-84
2022/12/15 13:18:56;;;;;;;;;;;;;;;19.11;42.87;100552.73;102059;1330;61279;-84
2022/12/15 13:21:40;;;;;;;;;;;;;;;19.12;42.94;100548.92;103052;1326;74586;-85
2022/12/15 13:24:16;;;;;;;;;;;;;;;19.13;42.94;100549.37;102800;1310;59921;-84
2022/12/15 13:26:43;;;;;;;;;;;;;;;19.14;42.77;100545.92;101996;1327;61236;-84
2022/12/15 13:29:08;;;;;;;;;;;;;;;19.15;42.98;100552.31;101918;1327;61303;-84
2022/12/15 13:31:37;;;;;;;;;;;;;;;19.15;42.78;100560.83;102050;1326;61324;-84
2022/12/15 13:34:29;;;;;;;;;;;;;;;19.15;42.64;100569.24;102125;1327;60406;-84
2022/12/15 13:36:55;;;;;;;;;;;;;;;19.14;42.65;100570.20;102001;1327;61298;-84
2022/12/15 13:39:22;;;;;;;;;;;;;;;19.14;42.48;100579.67;102008;1329;61361;-84
2022/12/15 13:41:47;;;;;;;;;;;;;;;19.13;42.65;100580.05;101994;1320;61240;-84
2022/12/15 13:44:32;;;;;;;;;;;;;;;19.14;42.35;100587.34;102017;1330;61456;-84
2022/12/15 13:47:14;;;;;;;;;;;;;;;19.13;42.37;100593.98;101983;1326;61267;-83
2022/12/15 13:49:40;;;;;;;;;;;;;;;19.11;42.34;100598.89;101985;1320;73659;-84
2022/12/15 13:52:13;;;;;;;;;;;;;;;19.10;42.24;100602.21;102107;1326;61386;-84
2022/12/15 13:54:39;;;;;;;;;;;;;;;19.08;42.18;100606.40;102068;1326;61360;-83
2022/12/15 13:57:07;;;;;;;;;;;;;;;19.07;42.24;100614.71;102115;1333;61478;-83
2022/12/15 13:59:46;;;;;;;;;;;;;;;19.02;42.17;100612.91;102032;1326;71667;-83
2022/12/15 14:02:30;;;;;;;;;;;;;;;19.00;42.09;100609.13;102107;1330;74736;-84
2022/12/15 14:05:24;;;;;;;;;;;;;;;19.00;42.07;100604.67;102108;1318;61297;-83
2022/12/15 14:07:54;;;;;;;;;;;;;;;19.00;42.15;100615.73;101864;1329;61237;-83
2022/12/15 14:10:20;;;;;;;;;;;;;;;18.99;42.18;100624.13;102038;1327;73624;-84
2022/12/15 14:12:45;;;;;;;;;;;;;;;19.00;42.03;100631.05;102112;1324;61319;-83
2022/12/15 14:15:13;;;;;;;;;;;;;;;19.00;42.03;100627.47;102020;1326;61483;-83
2022/12/15 14:17:39;;;;;;;;;;;;;;;19.00;41.91;100622.65;101956;1333;61274;-83
2022/12/15 14:20:11;;;;;;;;;;;;;;;19.00;41.86;100618.35;102061;1332;61389;-83
2022/12/15 14:22:39;;;;;;;;;;;;;;;19.01;41.90;100625.98;101927;1322;74394;-85
2022/12/15 14:25:12;;;;;;;;;;;;;;;19.01;41.84;100627.21;101957;1328;61237;-83
2022/12/15 14:27:40;;;;;;;;;;;;;;;19.01;41.83;100626.52;101968;1329;61165;-84
2022/12/15 14:30:25;;;;;;;;;;;;;;;19.03;41.81;100625.50;101986;1318;72701;-84
2022/12/15 14:32:52;;;;;;;;;;;;;;;19.07;41.80;100636.48;101994;1329;75780;-83
2022/12/15 14:35:21;;;;;;;;;;;;;;;19.11;41.77;100641.59;102029;1326;61342;-84
2022/12/15 14:37:47;;;;;;;;;;;;;;;19.14;41.84;100644.03;102037;1327;61293;-83
2022/12/15 14:40:13;;;;;;;;;;;;;;;19.18;41.91;100648.40;101996;1326;61318;-82
2022/12/15 14:42:39;;;;;;;;;;;;;;;19.22;41.77;100655.67;102032;1328;61332;-83
2022/12/15 14:45:05;;;;;;;;;;;;;;;19.26;41.67;100667.00;102072;1326;59286;-83
2022/12/15 14:47:32;;;;;;;;;;;;;;;19.28;41.79;100670.11;102095;1329;61273;-83
2022/12/15 14:50:00;;;;;;;;;;;;;;;19.30;41.74;100672.61;102061;1329;61841;-83
2022/12/15 14:52:26;;;;;;;;;;;;;;;19.33;41.92;100675.48;102102;1327;61764;-84
2022/12/15 14:54:53;;;;;;;;;;;;;;;19.36;42.07;100685.05;102074;1327;61213;-83